Tiempo atmosférico en la estación meteorológica de Barbadillo, Salamanca (817 m.)



Fecha
DESCASC
Temp. máxima en grados centígrados (hora)
DESCASC
Temp. mínima en grados centígrados (hora)
DESCASC
Temp. media en grados centígrados
DESCASC
Racha de viento máxima en m/sg (hora)
DESCASC
Velocidad máxima media en intervalos de 10 minutos(hora)
DESCASC
Precipitaciones diarias en mm
DESCASC
Precipitaciones de 00:00 a 06:00 en mm
DESCASC
Precipitaciones de 06:00 a 12:00 en mm
DESCASC
Precipitaciones de 12:00 a 18:00 en mm
DESCASC
Precipitaciones de 18:00 a 24:00 en mm
DESCASC
14-12-2019 10.8 (16:10) 7.6 (02:00) 9.2 10.28 (23:20) 6.11 (23:20) 0 0 0 0 0
13-12-2019 11.4 (16:20) 8.8 (23:59) 10.1 15.28 (02:50) 8.33 (04:30) 0 0 0 0 0
12-12-2019 10.5 (23:30) 3.2 (00:10) 6.9 15.83 (13:50) 9.17 (21:40) 0.4 0 0.2 0.2 0
11-12-2019 7.8 (14:50) 2 (00:00) 4.9 10.56 (16:20) 5.83 (15:10) 0.8 0 0.8 0 0
10-12-2019 9.5 (15:00) -3.3 (06:40) 3.1 3.61 (23:50) 2.5 (23:59) 0 0 0 0 0
09-12-2019 10.6 (14:00) -0.2 (23:59) 5.2 6.39 (14:50) 4.17 (14:40) 0 0 0 0 0
08-12-2019 10.3 (12:10) -0.3 (00:00) 5 7.78 (12:10) 5.56 (12:10) 2.8 0 0 2.8 0
07-12-2019 12.6 (17:20) -1.6 (-00:0) 5.5 4.44 (13:50) 2.5 (15:10) 0 0 0 0 0
06-12-2019 10.3 (16:30) -1.4 (-00:0) 4.5 3.89 (09:30) 2.22 (09:50) 0 0 0 0 0
05-12-2019 9.3 (14:20) -0.7 (-00:0) 4.3 9.17 (10:50) 6.11 (11:30) 0 0 0 0 0
04-12-2019 6.4 (16:30) -3.4 (05:40) 1.5 5.83 (15:00) 3.89 (15:00) 0 0 0 0 0
03-12-2019 5.8 (16:10) -2.6 (-00:0) 1.6 8.89 (12:00) 6.39 (12:00) 0 0 0 0 0
02-12-2019 9 (15:40) 1.8 (00:00) 5.4 19.17 (14:50) 10 (14:40) 0 0 0 0 0
01-12-2019 10.7 (14:10) 3.9 (00:00) 7.3 8.89 (23:10) 5 (03:50) 5.4 0.6 3.2 1.4 0.2
30-11-2019 12.5 (11:10) 4.7 (00:00) 8.6 12.5 (14:40) 7.78 (11:00) 5.2 0 0 5 0.2
29-11-2019 13.6 (14:50) 11.1 (00:00) 12.4 10 (00:30) 6.11 (00:20) 2.6 0 1 1.6 0
28-11-2019 12.9 (13:30) 8.3 (05:40) 10.6 15.56 (14:50) 9.44 (13:50) 0 0 0 0 0
27-11-2019 11.7 (14:10) 5.8 (00:00) 8.8 13.89 (13:40) 8.89 (13:50) 0.2 0.2 0 0 0
26-11-2019 14.8 (13:50) 8.5 (00:00) 11.7 19.17 (12:50) 10.28 (16:30) 2.8 0 1 0 1.8
25-11-2019 13.6 (13:40) 8.7 (23:59) 11.2 14.17 (02:20) 7.78 (02:10) 1.6 1.4 0.2 0 0
24-11-2019 10.2 (16:00) 3 (00:00) 6.6 11.39 (22:50) 7.22 (22:50) 0 0 0 0 0
23-11-2019 9.4 (15:50) 4 (00:00) 6.7 15.83 (02:30) 9.72 (00:30) 0 0 0 0 0
22-11-2019 13.1 (14:00) 6.1 (00:00) 9.6 20.28 (09:50) 13.06 (11:30) 8.2 1 2.8 3.6 0.8
21-11-2019 10.1 (15:50) 4.1 (00:00) 7.1 10.83 (13:50) 5.56 (14:40) 1.4 0.4 0.2 0.2 0.6
20-11-2019 7.5 (15:50) 4.2 (23:20) 5.8 10 (13:50) 6.67 (13:40) 6.2 1.4 4.6 0.2 0
19-11-2019 9.2 (15:00) -2 (-00:0) 3.6 5.83 (12:40) 3.61 (12:50) 0 0 0 0 0
18-11-2019 9.1 (15:30) 0.8 (00:00) 5 4.44 (14:20) 2.22 (00:10) 0 0 0 0 0
17-11-2019 9.2 (13:10) 2.3 (00:00) 5.7 11.67 (13:10) 6.67 (11:50) 3.6 0 0.4 3 0.2
16-11-2019 6.9 (15:50) -2.4 (-00:0) 2.3 8.61 (15:20) 5.83 (13:40) 0 0 0 0 0

Gráficas

Temp. máximas Temp. mínimas Temp. medias Precipitaciones Rachas de viento máximas Velocidades máximas media en intervalos de 10 minutos

Datos horarios

Fecha y hora oficial Temperatura (ºC) Velocidad del viento (km/h) Dirección del viento Racha (km/h) Dirección de racha Precipitación (mm) Presión (hPa) Tendencia (hPa) Humedad (%)
2019-12-15 23:00:00 8.8 21 Sur 40 Sur 0 -- -- 89
2019-12-15 22:00:00 9.2 13 Sur 25 Sur 0 -- -- 87
2019-12-15 21:00:00 9.2 10 Sur 32 Sur 0 -- -- 87
2019-12-15 20:00:00 9.3 20 Sur 31 Sur 0 -- -- 87
2019-12-15 19:00:00 9.4 21 Sur 35 Sur 0 -- -- 86
2019-12-15 18:00:00 9.3 24 Sur 48 Sur 0 -- -- 87
2019-12-15 17:00:00 10.2 18 Sur 31 Sudoeste 0 -- -- 83
2019-12-15 16:00:00 10.6 19 Sur 37 Sur 0 -- -- 81
2019-12-15 15:00:00 10.9 21 Sur 34 Sudoeste 0 -- -- 80
2019-12-15 14:00:00 10.9 23 Sur 36 Sudoeste 0 -- -- 77
2019-12-15 13:00:00 10.9 26 Sur 48 Sur 0 -- -- 78
2019-12-15 12:00:00 10.2 30 Sur 43 Sudoeste 0 -- -- 81
2019-12-15 11:00:00 9.7 23 Sur 32 Sur 0 -- -- 80
2019-12-15 10:00:00 8.7 14 Sudoeste 23 Sudoeste 0 -- -- 87
2019-12-15 09:00:00 7.3 12 Sudoeste 18 Sudoeste 0 -- -- 90
2019-12-15 08:00:00 7.5 15 Sudoeste 23 Sur 0 -- -- 87
2019-12-15 07:00:00 7.9 13 Sudoeste 30 Sur 0 -- -- 84
2019-12-15 06:00:00 8.3 19 Sudoeste 35 Sur 0 -- -- 82
2019-12-15 05:00:00 8.8 23 Sudoeste 37 Sudoeste 0 -- -- 79
2019-12-15 04:00:00 8.8 21 Sudoeste 33 Sudoeste 0 -- -- 79
2019-12-15 03:00:00 8.7 16 Sur 24 Sudoeste 0 -- -- 84
2019-12-15 02:00:00 8.7 12 Sur 22 Sudoeste 0 -- -- 80
2019-12-15 01:00:00 9.3 12 Sudoeste 28 Sudoeste 0 -- -- 77
2019-12-15 00:00:00 9.1 19 Sudoeste 37 Sudoeste 0 -- -- 78
2019-12-14 23:00:00 9.1 15 Sudoeste 27 Sudoeste 0 -- -- 80
2019-12-14 22:00:00 9 16 Sudoeste 30 Sudoeste 0 -- -- 80
2019-12-14 21:00:00 8.7 10 Sur 21 Sudoeste 0 -- -- 86
2019-12-14 20:00:00 9.1 12 Sudoeste 21 Sudoeste 0 -- -- 85
2019-12-14 19:00:00 9.2 17 Sudoeste 26 Sudoeste 0 -- -- 86
2019-12-14 18:00:00 10.1 12 Sudoeste 26 Sudoeste 0 -- -- 75
2019-12-14 17:00:00 10.5 14 Sudoeste 31 Sudoeste 0 -- -- 77
2019-12-14 16:00:00 10.7 15 Sudoeste 31 Oeste 0 -- -- 78
2019-12-14 15:00:00 9.9 17 Oeste 33 Oeste 0 -- -- 87
2019-12-14 14:00:00 10.1 15 Sudoeste 29 Sudoeste 0 -- -- 83
2019-12-14 13:00:00 10 16 Sudoeste 28 Sudoeste 0 -- -- 82
2019-12-14 12:00:00 9.4 17 Sudoeste 31 Sudoeste 0 -- -- 87
2019-12-14 11:00:00 8.7 17 Sudoeste 26 Sudoeste 0 -- -- 91
2019-12-14 10:00:00 8.2 12 Sudoeste 25 Sudoeste 0 -- -- 94
2019-12-14 09:00:00 7.9 15 Sudoeste 23 Sudoeste 0 -- -- 92
2019-12-14 08:00:00 7.8 13 Sudoeste 27 Sudoeste 0 -- -- 90
2019-12-14 07:00:00 7.9 15 Sudoeste 24 Sudoeste 0 -- -- 88
2019-12-14 06:00:00 7.9 15 Sudoeste 26 Sudoeste 0 -- -- 88
2019-12-14 05:00:00 8 15 Sudoeste 27 Sudoeste 0 -- -- 88
2019-12-14 04:00:00 8.1 14 Sudoeste 31 Sudoeste 0 -- -- 90
2019-12-14 03:00:00 8.1 16 Sudoeste 31 Sudoeste 0 -- -- 89
2019-12-14 02:00:00 7.6 12 Sudoeste 32 Sudoeste 0 -- -- 89
2019-12-14 01:00:00 8.3 19 Oeste 34 Oeste 0 -- -- 90
2019-12-14 00:00:00 8.8 19 Oeste 37 Oeste 0 -- -- 90
2019-12-13 23:00:00 9.3 19 Oeste 35 Oeste 0 -- -- 92
2019-12-13 22:00:00 9.4 22 Oeste 44 Oeste 0 -- -- 92
2019-12-13 21:00:00 9.4 21 Sudoeste 34 Sudoeste 0 -- -- 92
2019-12-13 20:00:00 9.7 22 Sudoeste 40 Sudoeste 0 -- -- 91
2019-12-13 19:00:00 10.3 22 Sudoeste 34 Sudoeste 0 -- -- 90
2019-12-13 18:00:00 10.6 16 Sudoeste 29 Sudoeste 0 -- -- 89
2019-12-13 17:00:00 11.1 16 Sudoeste 36 Oeste 0 -- -- 88
2019-12-13 16:00:00 11.3 25 Oeste 40 Oeste 0 -- -- 89
2019-12-13 15:00:00 11.1 18 Sudoeste 38 Sudoeste 0 -- -- 90
2019-12-13 14:00:00 11 22 Sudoeste 40 Sudoeste 0 -- -- 90
2019-12-13 13:00:00 10.7 24 Sudoeste 47 Oeste 0 -- -- 90
2019-12-13 12:00:00 10.3 21 Sudoeste 35 Sudoeste 0 -- -- 89
2019-12-13 11:00:00 10.2 21 Sudoeste 41 Sudoeste 0 -- -- 86
2019-12-13 10:00:00 9.8 24 Sudoeste 39 Sudoeste 0 -- -- 87
2019-12-13 09:00:00 9.3 16 Sudoeste 40 Sudoeste 0 -- -- 89
2019-12-13 08:00:00 9.3 21 Sudoeste 38 Sudoeste 0 -- -- 90
2019-12-13 07:00:00 9.2 21 Sudoeste 38 Sudoeste 0 -- -- 89
2019-12-13 06:00:00 9.3 22 Sudoeste 49 Sudoeste 0 -- -- 89
2019-12-13 05:00:00 9.8 26 Oeste 46 Oeste 0 -- -- 90
2019-12-13 04:00:00 10.1 27 Oeste 46 Oeste 0 -- -- 92
2019-12-13 03:00:00 10.3 25 Oeste 55 Sudoeste 0 -- -- 92
2019-12-13 02:00:00 10.3 26 Oeste 44 Sudoeste 0 -- -- 93
2019-12-13 01:00:00 10.4 22 Sudoeste 44 Sudoeste 0 -- -- 93
2019-12-13 00:00:00 10.5 21 Sudoeste 36 Oeste 0 -- -- 91
2019-12-12 23:00:00 10.4 22 Sudoeste 48 Oeste 0 -- -- 92
2019-12-12 22:00:00 10.2 30 Oeste 49 Oeste 0 -- -- 92
2019-12-12 21:00:00 10 27 Sudoeste 44 Oeste 0 -- -- 93
2019-12-12 20:00:00 9.6 24 Sudoeste 44 Sudoeste 0 -- -- 94
2019-12-12 19:00:00 9.1 26 Sudoeste 48 Sudoeste 0 -- -- 95
2019-12-12 18:00:00 8.4 28 Sudoeste 48 Sudoeste 0 -- -- 95
2019-12-12 17:00:00 7.7 29 Sudoeste 54 Sudoeste 0 -- -- 95
2019-12-12 16:00:00 7.4 28 Sudoeste 53 Sudoeste 0 -- -- 94
2019-12-12 15:00:00 7.3 30 Sudoeste 54 Sudoeste 0 -- -- 92
2019-12-12 14:00:00 7.1 27 Sudoeste 57 Sudoeste 0.2 -- -- 94
2019-12-12 13:00:00 7 24 Sudoeste 47 Oeste 0 -- -- 90
2019-12-12 12:00:00 6.5 24 Sudoeste 42 Sudoeste 0 -- -- 93
2019-12-12 11:00:00 6.3 22 Sudoeste 46 Sudoeste 0 -- -- 91
2019-12-12 10:00:00 5.8 26 Sudoeste 42 Sudoeste 0 -- -- 91
2019-12-12 09:00:00 5.3 21 Sudoeste 38 Sudoeste 0 -- -- 92
2019-12-12 08:00:00 5.2 16 Sudoeste 33 Sudoeste 0.2 -- -- 94
2019-12-12 07:00:00 5 20 Sudoeste 33 Oeste 0 -- -- 94
2019-12-12 06:00:00 4.6 20 Sudoeste 30 Sudoeste 0 -- -- 95
2019-12-12 05:00:00 3.8 14 Sudoeste 26 Sudoeste 0 -- -- 95
2019-12-12 04:00:00 3.6 16 Sudoeste 34 Oeste 0 -- -- 95
2019-12-12 03:00:00 3.6 14 Sudoeste 24 Sudoeste 0 -- -- 94
2019-12-12 02:00:00 3.5 10 Sudoeste 23 Oeste 0 -- -- 93
2019-12-12 01:00:00 3.3 15 Oeste 24 Oeste 0 -- -- 93
2019-12-12 00:00:00 3.3 12 Sudoeste 22 Sudoeste 0 -- -- 89
2019-12-11 23:00:00 4.1 15 Sudoeste 27 Sudoeste 0 -- -- 86
2019-12-11 22:00:00 4 11 Sudoeste 23 Sudoeste 0 -- -- 84
2019-12-11 21:00:00 3.8 12 Sudoeste 18 Sudoeste 0 -- -- 83
2019-12-11 20:00:00 4.1 9 Sudoeste 19 Sur 0 -- -- 79
2019-12-11 19:00:00 4 7 Oeste 19 Oeste 0 -- -- 78
2019-12-11 18:00:00 5.5 8 Oeste 26 Oeste 0 -- -- 71
2019-12-11 17:00:00 6.7 17 Oeste 38 Noroeste 0 -- -- 66
2019-12-11 16:00:00 7.5 18 Noroeste 36 Noroeste 0 -- -- 65
2019-12-11 15:00:00 7.7 20 Noroeste 34 Oeste 0 -- -- 66
2019-12-11 14:00:00 7.3 19 Noroeste 31 Noroeste 0 -- -- 72
2019-12-11 13:00:00 6.8 13 Oeste 31 Oeste 0 -- -- 78
2019-12-11 12:00:00 6.3 17 Noroeste 31 Oeste 0 -- -- 83
2019-12-11 11:00:00 6 15 Oeste 36 Oeste 0 -- -- 92
2019-12-11 10:00:00 4.9 13 Oeste 28 Oeste 0 -- -- 96
2019-12-11 09:00:00 4.3 16 Sudoeste 24 Sudoeste 0.6 -- -- 94
2019-12-11 08:00:00 4.8 9 Oeste 14 Oeste 0.2 -- -- 86
2019-12-11 07:00:00 2.9 2 Noroeste 6 Sudoeste 0 -- -- 81
2019-12-11 06:00:00 2.6 4 Sudoeste 6 Sudoeste 0 -- -- 80
2019-12-11 05:00:00 3.4 6 Sur 12 Sur 0 -- -- 71
2019-12-11 04:00:00 2.7 9 Sur 14 Sur 0 -- -- 73
2019-12-11 03:00:00 2.3 7 Sur 11 Sur 0 -- -- 81
2019-12-11 02:00:00 3.9 11 Sur 14 Sur 0 -- -- 73
2019-12-11 01:00:00 3.2 10 Sur 14 Sur 0 -- -- 79
2019-12-11 00:00:00 2.7 9 Sur 13 Sur 0 -- -- 85
2019-12-10 23:00:00 2 4 Sur 8 Sur 0 -- -- 90
2019-12-10 22:00:00 3.5 4 Sur 10 Sur 0 -- -- 88
2019-12-10 21:00:00 4.9 7 Sur 10 Sur 0 -- -- 91
2019-12-10 20:00:00 4.7 0 Calma 0 Calma 0 -- -- 92
2019-12-10 19:00:00 6.2 0 Calma 0 Calma 0 -- -- 88
2019-12-10 18:00:00 8.1 0 Calma 3 Sudeste 0 -- -- 85
2019-12-10 17:00:00 9 0 Calma 5 Este 0 -- -- 81
2019-12-10 16:00:00 9.2 4 Este 8 Este 0 -- -- 77
2019-12-10 15:00:00 9.5 4 Sudeste 6 Sur 0 -- -- 67
2019-12-10 14:00:00 7.1 2 Nordeste 6 Norte 0 -- -- 88
2019-12-10 13:00:00 5.2 4 Norte 10 Noroeste 0 -- -- 94
2019-12-10 12:00:00 3.7 2 Noroeste 5 Oeste 0 -- -- 99
2019-12-10 11:00:00 -0.2 0 Calma 6 Noroeste 0 -- -- 98
2019-12-10 10:00:00 -1.3 4 Noroeste 6 Noroeste 0 -- -- 97
2019-12-10 09:00:00 -3.1 4 Noroeste 8 Noroeste 0 -- -- 96
2019-12-10 08:00:00 -3.1 2 Sur 5 Sur 0 -- -- 96
2019-12-10 07:00:00 -3.2 4 Sur 7 Sur 0 -- -- 96
2019-12-10 06:00:00 -2.7 0 Calma 6 Sur 0 -- -- 96
2019-12-10 05:00:00 -2.4 0 Calma 6 Noroeste 0 -- -- 95
2019-12-10 04:00:00 -1.8 0 Calma 5 Sur 0 -- -- 96
2019-12-10 03:00:00 -1.1 5 Sur 9 Sudeste 0 -- -- 96
2019-12-10 02:00:00 -1.4 0 Calma 5 Sur 0 -- -- 95
2019-12-10 01:00:00 -0.8 0 Calma 7 Sur 0 -- -- 94
2019-12-10 00:00:00 -0.2 4 Sur 6 Sur 0 -- -- 94
2019-12-09 23:00:00 0.7 0 Calma 6 Sur 0 -- -- 93
2019-12-09 22:00:00 1.8 4 Sudeste 7 Sur 0 -- -- 93
2019-12-09 21:00:00 2.9 6 Sur 9 Sudeste 0 -- -- 93
2019-12-09 20:00:00 4.5 3 Sur 7 Sudeste 0 -- -- 90
2019-12-09 19:00:00 6.1 2 Noroeste 6 Oeste 0 -- -- 87
2019-12-09 18:00:00 8.2 4 Oeste 11 Oeste 0 -- -- 82
2019-12-09 17:00:00 9.4 6 Sudoeste 21 Oeste 0 -- -- 76
2019-12-09 16:00:00 10 12 Oeste 18 Sudoeste 0 -- -- 77
2019-12-09 15:00:00 10 12 Oeste 23 Oeste 0 -- -- 78
2019-12-09 14:00:00 10.6 9 Oeste 21 Sudoeste 0 -- -- 74
2019-12-09 13:00:00 8.7 9 Sudoeste 16 Sudoeste 0 -- -- 81
2019-12-09 12:00:00 7.2 7 Oeste 17 Oeste 0 -- -- 88
2019-12-09 11:00:00 5.7 9 Sudoeste 15 Oeste 0 -- -- 96
2019-12-09 10:00:00 4.7 9 Sudoeste 17 Oeste 0 -- -- 96
2019-12-09 09:00:00 4.7 5 Oeste 13 Oeste 0 -- -- 96
2019-12-09 08:00:00 5.1 10 Oeste 15 Oeste 0 -- -- 96
2019-12-09 07:00:00 5.5 5 Sudoeste 17 Sudoeste 0 -- -- 97
2019-12-09 06:00:00 5.6 6 Sur 11 Sur 0 -- -- 96
2019-12-09 05:00:00 6.2 6 Sudoeste 12 Sudoeste 0 -- -- 95
2019-12-09 04:00:00 6.5 7 Sudoeste 11 Sudoeste 0 -- -- 96
2019-12-09 03:00:00 6.9 4 Sudoeste 8 Oeste 0 -- -- 95
2019-12-09 02:00:00 7.7 3 Oeste 12 Oeste 0 -- -- 93
2019-12-09 01:00:00 8.4 6 Oeste 15 Noroeste 0 -- -- 94
2019-12-09 00:00:00 9 7 Oeste 11 Oeste 0 -- -- 96
2019-12-08 23:00:00 9.3 6 Noroeste 14 Oeste 0 -- -- 96
2019-12-08 22:00:00 10 6 Oeste 16 Noroeste 0 -- -- 97
2019-12-08 21:00:00 10.2 9 Oeste 18 Oeste 0 -- -- 98
2019-12-08 20:00:00 10.2 11 Oeste 22 Oeste 0 -- -- 98
2019-12-08 19:00:00 10.1 7 Sudoeste 18 Sudoeste 0 -- -- 98
2019-12-08 18:00:00 10.1 10 Sudoeste 18 Sudoeste 0 -- -- 98
2019-12-08 17:00:00 10.1 10 Sudoeste 17 Sudoeste 0.4 -- -- 97
2019-12-08 16:00:00 10.2 12 Sudoeste 19 Sudoeste 0 -- -- 97
2019-12-08 15:00:00 10 12 Sudoeste 20 Sudoeste 1.8 -- -- 97
2019-12-08 14:00:00 10 14 Oeste 22 Oeste 0.4 -- -- 96
2019-12-08 13:00:00 10 13 Sudoeste 28 Sudoeste 0.2 -- -- 95
2019-12-08 12:00:00 10.2 16 Sudoeste 25 Sudoeste 0 -- -- 91
2019-12-08 11:00:00 9.2 10 Sudoeste 19 Sudoeste 0 -- -- 97
2019-12-08 10:00:00 6.4 8 Sudoeste 12 Sudoeste 0 -- -- 99
2019-12-08 09:00:00 3.9 3 Sur 4 Sudeste 0 -- -- 99
2019-12-08 08:00:00 2.6 0 Calma 4 Sur 0 -- -- 98
2019-12-08 07:00:00 1.9 3 Sur 6 Sur 0 -- -- 99
2019-12-08 06:00:00 1.4 2 Sudeste 8 Sur 0 -- -- 98
2019-12-08 05:00:00 1.3 4 Sudoeste 12 Sur 0 -- -- 98
2019-12-08 04:00:00 0.5 5 Sudoeste 9 Sur 0 -- -- 97
2019-12-08 03:00:00 -0.2 6 Sur 8 Sur 0 -- -- 96
2019-12-08 02:00:00 0.1 2 Sudeste 6 Sur 0 -- -- 94
2019-12-08 01:00:00 0.9 2 Sur 10 Sur 0 -- -- 94
2019-12-08 00:00:00 1.6 6 Sur 8 Sur 0 -- -- 95
2019-12-07 23:00:00 1.8 0 Calma 7 Sur 0 -- -- 93
2019-12-07 22:00:00 2.5 5 Sur 9 Sur 0 -- -- 93
2019-12-07 21:00:00 3.5 2 Sudoeste 9 Sur 0 -- -- 89
2019-12-07 20:00:00 4.6 4 Sur 8 Sur 0 -- -- 90
2019-12-07 19:00:00 6.7 5 Sur 6 Sur 0 -- -- 85
2019-12-07 18:00:00 11.2 3 Sur 5 Sudeste 0 -- -- 73
2019-12-07 17:00:00 12.3 3 Oeste 10 Oeste 0 -- -- 72
2019-12-07 16:00:00 12.2 6 Noroeste 15 Noroeste 0 -- -- 73
2019-12-07 15:00:00 11.8 8 Noroeste 13 Noroeste 0 -- -- 68
2019-12-07 14:00:00 11.2 7 Noroeste 16 Noroeste 0 -- -- 78
2019-12-07 13:00:00 10.6 0 Calma 6 Sudoeste 0 -- -- 79
2019-12-07 12:00:00 7.3 3 Nordeste 6 Nordeste 0 -- -- 92
2019-12-07 11:00:00 3.5 2 Noroeste 4 Este 0 -- -- 98
2019-12-07 10:00:00 -0.1 2 Norte 4 Norte 0 -- -- 99
2019-12-07 09:00:00 -1.5 0 Calma 5 Sudeste 0 -- -- 98
2019-12-07 08:00:00 -1.2 3 Sudeste 10 Norte 0 -- -- 98
2019-12-07 07:00:00 -1.3 3 Noroeste 8 Noroeste 0 -- -- 98
2019-12-07 06:00:00 -0.9 6 Sur 9 Sur 0 -- -- 98
2019-12-07 05:00:00 -0.6 0 Calma 5 Sudeste 0 -- -- 98
2019-12-07 04:00:00 -0.8 2 Este 5 Noroeste 0 -- -- 98
2019-12-07 03:00:00 -0.8 3 Norte 5 Sur 0 -- -- 98
2019-12-07 02:00:00 -0.4 0 Calma 9 Sudeste 0 -- -- 97
2019-12-07 01:00:00 0.1 4 Sur 5 Sur 0 -- -- 97
2019-12-07 00:00:00 0.5 3 Sur 10 Sudeste 0 -- -- 97
2019-12-06 23:00:00 0.7 3 Sur 8 Sur 0 -- -- 96
2019-12-06 22:00:00 1.4 7 Sur 11 Sur 0 -- -- 96
2019-12-06 21:00:00 1.8 5 Sur 8 Sur 0 -- -- 92
2019-12-06 20:00:00 3.2 0 Calma 9 Sur 0 -- -- 92
2019-12-06 19:00:00 5.2 6 Sur 9 Sur 0 -- -- 88
2019-12-06 18:00:00 8.7 0 Calma 8 Oeste 0 -- -- 83
2019-12-06 17:00:00 10.1 3 Norte 6 Este 0 -- -- 79
2019-12-06 16:00:00 9.8 3 Nordeste 8 Norte 0 -- -- 80
2019-12-06 15:00:00 8.3 2 Este 7 Este 0 -- -- 88
2019-12-06 14:00:00 5.2 0 Calma 8 Norte 0 -- -- 100
2019-12-06 13:00:00 3.8 4 Noroeste 8 Noroeste 0 -- -- 99
2019-12-06 12:00:00 2.6 4 Nordeste 11 Sudeste 0 -- -- 99
2019-12-06 11:00:00 1.8 5 Este 9 Sudeste 0 -- -- 99
2019-12-06 10:00:00 1.2 5 Este 14 Sur 0 -- -- 99
2019-12-06 09:00:00 1.3 4 Nordeste 9 Este 0 -- -- 98
2019-12-06 08:00:00 1 2 Este 7 Sudeste 0 -- -- 98
2019-12-06 07:00:00 0.7 0 Calma 9 Este 0 -- -- 98
2019-12-06 06:00:00 -0.8 0 Calma 5 Sudeste 0 -- -- 97
2019-12-06 05:00:00 -1.3 0 Calma 6 Norte 0 -- -- 95
2019-12-06 04:00:00 -0.6 2 Noroeste 8 Sudeste 0 -- -- 95
2019-12-06 03:00:00 0 3 Sur 7 Sur 0 -- -- 94
2019-12-06 02:00:00 1 3 Sudoeste 5 Sur 0 -- -- 92
2019-12-06 01:00:00 2.4 2 Norte 9 Norte 0 -- -- 91
2019-12-06 00:00:00 3.5 6 Nordeste 17 Este 0 -- -- 90
2019-12-05 23:00:00 4.6 13 Este 19 Este 0 -- -- 89
2019-12-05 22:00:00 6 11 Nordeste 28 Este 0 -- -- 84
2019-12-05 21:00:00 6.8 17 Nordeste 23 Nordeste 0 -- -- 83
2019-12-05 20:00:00 6.4 7 Nordeste 18 Nordeste 0 -- -- 86
2019-12-05 19:00:00 7.2 9 Nordeste 15 Nordeste 0 -- -- 85
2019-12-05 18:00:00 7.8 4 Nordeste 14 Nordeste 0 -- -- 82
2019-12-05 17:00:00 8.6 11 Nordeste 24 Este 0 -- -- 80
2019-12-05 16:00:00 8.4 10 Este 26 Nordeste 0 -- -- 80
2019-12-05 15:00:00 8.6 18 Nordeste 31 Este 0 -- -- 78
2019-12-05 14:00:00 8.6 18 Este 29 Nordeste 0 -- -- 79
2019-12-05 13:00:00 7.1 21 Nordeste 28 Nordeste 0 -- -- 83
2019-12-05 12:00:00 6.1 15 Nordeste 32 Nordeste 0 -- -- 87
2019-12-05 11:00:00 5.7 20 Nordeste 33 Nordeste 0 -- -- 87
2019-12-05 10:00:00 5.3 16 Nordeste 27 Nordeste 0 -- -- 90
2019-12-05 09:00:00 5.3 10 Nordeste 22 Nordeste 0 -- -- 90
2019-12-05 08:00:00 5.6 15 Nordeste 31 Nordeste 0 -- -- 88
2019-12-05 07:00:00 5.3 12 Nordeste 27 Nordeste 0 -- -- 90
2019-12-05 06:00:00 4.9 10 Nordeste 18 Nordeste 0 -- -- 91
2019-12-05 05:00:00 4.4 10 Nordeste 20 Nordeste 0 -- -- 90
2019-12-05 04:00:00 3.3 3 Nordeste 25 Este 0 -- -- 91
2019-12-05 03:00:00 2.9 18 Este 30 Este 0 -- -- 91
2019-12-05 02:00:00 1.6 9 Este 18 Este 0 -- -- 97
2019-12-05 01:00:00 -0.3 2 Sudeste 9 Sudeste 0 -- -- 96
2019-12-05 00:00:00 -0.6 4 Norte 9 Norte 0 -- -- 95
2019-12-04 23:00:00 -0.2 4 Sur 7 Sur 0 -- -- 95
2019-12-04 22:00:00 0.4 3 Sur 6 Sur 0 -- -- 94
2019-12-04 21:00:00 1.3 5 Sur 9 Sur 0 -- -- 94
2019-12-04 20:00:00 2.7 4 Sudeste 9 Noroeste 0 -- -- 93
2019-12-04 19:00:00 4.6 2 Sudeste 9 Este 0 -- -- 91
2019-12-04 18:00:00 5.8 8 Nordeste 15 Nordeste 0 -- -- 89
2019-12-04 17:00:00 6.4 10 Nordeste 18 Nordeste 0 -- -- 87
2019-12-04 16:00:00 6.3 11 Nordeste 19 Nordeste 0 -- -- 86
2019-12-04 15:00:00 5.2 14 Nordeste 21 Este 0 -- -- 87
2019-12-04 14:00:00 4.3 6 Nordeste 17 Nordeste 0 -- -- 89
2019-12-04 13:00:00 3.1 9 Nordeste 18 Nordeste 0 -- -- 92
2019-12-04 12:00:00 1.4 9 Este 20 Este 0 -- -- 97
2019-12-04 11:00:00 0.2 9 Este 14 Nordeste 0 -- -- 98
2019-12-04 10:00:00 -0.6 10 Nordeste 15 Este 0 -- -- 98
2019-12-04 09:00:00 -2.6 4 Este 7 Este 0 -- -- 97
2019-12-04 08:00:00 -2.6 5 Sur 11 Este 0 -- -- 97
2019-12-04 07:00:00 -2.2 5 Este 9 Norte 0 -- -- 97
2019-12-04 06:00:00 -3.2 4 Noroeste 6 Norte 0 -- -- 96
2019-12-04 05:00:00 -3.1 2 Norte 9 Nordeste 0 -- -- 95
2019-12-04 04:00:00 -2.9 3 Este 9 Sudoeste 0 -- -- 96
2019-12-04 03:00:00 -2.8 5 Sudoeste 8 Sur 0 -- -- 95
2019-12-04 02:00:00 -2.9 0 Calma 6 Sur 0 -- -- 95
2019-12-04 01:00:00 -2.8 4 Nordeste 8 Sur 0 -- -- 95
2019-12-04 00:00:00 -2.5 0 Calma 5 Sudeste 0 -- -- 94
2019-12-03 23:00:00 -2.2 3 Sur 5 Sur 0 -- -- 94
2019-12-03 22:00:00 -1.8 2 Sudoeste 6 Este 0 -- -- 92
2019-12-03 21:00:00 -1.2 0 Calma 6 Sur 0 -- -- 91
2019-12-03 20:00:00 0.2 0 Calma 6 Sur 0 -- -- 89
2019-12-03 19:00:00 2 4 Este 10 Este 0 -- -- 86
2019-12-03 18:00:00 4 7 Este 18 Este 0 -- -- 79
2019-12-03 17:00:00 5.5 12 Este 20 Este 0 -- -- 75
2019-12-03 16:00:00 5.7 12 Este 21 Este 0 -- -- 73
2019-12-03 15:00:00 5 11 Este 22 Este 0 -- -- 78
2019-12-03 14:00:00 4.3 15 Este 24 Este 0 -- -- 81
2019-12-03 13:00:00 2.9 13 Nordeste 28 Este 0 -- -- 86
2019-12-03 12:00:00 2 23 Este 32 Nordeste 0 -- -- 86
2019-12-03 11:00:00 1.5 17 Nordeste 27 Nordeste 0 -- -- 90
2019-12-03 10:00:00 0.7 14 Nordeste 20 Este 0 -- -- 93
2019-12-03 09:00:00 -0.7 6 Nordeste 14 Nordeste 0 -- -- 95
2019-12-03 08:00:00 -0.7 9 Este 18 Nordeste 0 -- -- 94
2019-12-03 07:00:00 -0.1 13 Este 22 Nordeste 0 -- -- 94
2019-12-03 06:00:00 -0.2 12 Nordeste 18 Este 0 -- -- 93
2019-12-03 05:00:00 -0.5 7 Nordeste 16 Nordeste 0 -- -- 93
2019-12-03 04:00:00 -0.3 6 Nordeste 15 Nordeste 0 -- -- 92
2019-12-03 03:00:00 0.1 10 Nordeste 18 Nordeste 0 -- -- 91
2019-12-03 02:00:00 0.7 11 Nordeste 25 Este 0 -- -- 89
2019-12-03 01:00:00 1.3 18 Nordeste 29 Nordeste 0 -- -- 87
2019-12-03 00:00:00 1.8 19 Este 30 Este 0 -- -- 86
2019-12-02 23:00:00 2.4 14 Nordeste 31 Nordeste 0 -- -- 86
2019-12-02 22:00:00 3.3 22 Nordeste 41 Nordeste 0 -- -- 82
2019-12-02 21:00:00 4 21 Nordeste 41 Nordeste 0 -- -- 85
2019-12-02 20:00:00 4.9 26 Nordeste 41 Nordeste 0 -- -- 85
2019-12-02 19:00:00 5.8 23 Nordeste 38 Nordeste 0 -- -- 83
2019-12-02 18:00:00 6.9 21 Nordeste 48 Nordeste 0 -- -- 79
2019-12-02 17:00:00 7.7 18 Nordeste 48 Nordeste 0 -- -- 77
2019-12-02 16:00:00 8.7 27 Nordeste 55 Nordeste 0 -- -- 70
2019-12-02 15:00:00 8.6 32 Nordeste 69 Nordeste 0 -- -- 73
2019-12-02 14:00:00 7.9 30 Nordeste 52 Nordeste 0 -- -- 76
2019-12-02 13:00:00 7.3 34 Nordeste 54 Nordeste 0 -- -- 77
2019-12-02 12:00:00 7.1 31 Nordeste 50 Este 0 -- -- 82
2019-12-02 11:00:00 5.6 23 Nordeste 45 Nordeste 0 -- -- 88
2019-12-02 10:00:00 4.6 18 Nordeste 37 Nordeste 0 -- -- 91
2019-12-02 09:00:00 3.6 22 Nordeste 40 Nordeste 0 -- -- 92
2019-12-02 08:00:00 3.4 25 Nordeste 39 Nordeste 0 -- -- 92
2019-12-02 07:00:00 3.4 21 Nordeste 36 Nordeste 0 -- -- 93
2019-12-02 06:00:00 3.3 21 Nordeste 38 Nordeste 0 -- -- 93
2019-12-02 05:00:00 3.6 17 Nordeste 41 Nordeste 0 -- -- 92
2019-12-02 04:00:00 4.2 19 Nordeste 39 Nordeste 0 -- -- 91
2019-12-02 03:00:00 4.7 20 Nordeste 39 Este 0 -- -- 91
2019-12-02 02:00:00 5.1 20 Nordeste 37 Nordeste 0 -- -- 91
2019-12-02 01:00:00 5.1 22 Nordeste 35 Nordeste 0 -- -- 91
2019-12-02 00:00:00 5.4 17 Nordeste 32 Nordeste 0 -- -- 91
2019-12-01 23:00:00 6.2 16 Nordeste 30 Nordeste 0 -- -- 92
2019-12-01 22:00:00 5.9 13 Nordeste 28 Nordeste 0.2 -- -- 94
2019-12-01 21:00:00 6 16 Nordeste 31 Nordeste 0 -- -- 92
2019-12-01 20:00:00 6.7 16 Nordeste 31 Nordeste 0 -- -- 93
2019-12-01 19:00:00 7.1 14 Norte 26 Nordeste 0 -- -- 92
2019-12-01 18:00:00 7.5 9 Nordeste 25 Nordeste 0 -- -- 90
2019-12-01 17:00:00 7.7 8 Norte 19 Nordeste 0 -- -- 92
2019-12-01 16:00:00 7.8 10 Norte 23 Norte 0.2 -- -- 92
2019-12-01 15:00:00 9 6 Nordeste 21 Noroeste 1.2 -- -- 85
2019-12-01 14:00:00 10.5 2 Este 9 Este 0 -- -- 74
2019-12-01 13:00:00 9.5 4 Sudeste 11 Sur 0 -- -- 83
2019-12-01 12:00:00 8.4 9 Sur 14 Sudeste 0 -- -- 83
2019-12-01 11:00:00 7 4 Sur 14 Sudoeste 0 -- -- 92
2019-12-01 10:00:00 6.3 9 Sur 15 Sur 0 -- -- 91
2019-12-01 09:00:00 6.2 8 Sur 19 Sudoeste 0.2 -- -- 93
2019-12-01 08:00:00 6.4 11 Sudoeste 18 Sudoeste 2.2 -- -- 95
2019-12-01 07:00:00 6.4 13 Sudoeste 21 Sur 0.8 -- -- 94
2019-12-01 06:00:00 6.1 9 Sur 28 Sudoeste 0.4 -- -- 92
2019-12-01 05:00:00 5.9 15 Sur 24 Sur 0.2 -- -- 92
2019-12-01 04:00:00 5.8 15 Sur 25 Sur 0 -- -- 88
2019-12-01 03:00:00 5.3 14 Sur 22 Sudoeste 0 -- -- 89
2019-12-01 02:00:00 4.9 14 Sur 21 Sur 0 -- -- 91
2019-12-01 01:00:00 4 10 Sur 18 Sudoeste 0 -- -- 94
2019-12-01 00:00:00 4.8 13 Sudoeste 17 Sudoeste 0 -- -- 93
2019-11-30 23:00:00 5.3 14 Sudoeste 20 Sudoeste 0 -- -- 95
2019-11-30 22:00:00 5.1 4 Sur 15 Sudoeste 0 -- -- 94
2019-11-30 21:00:00 6.3 9 Sudoeste 22 Sudoeste 0 -- -- 94
2019-11-30 20:00:00 6.8 9 Sudoeste 24 Sudoeste 0 -- -- 94
2019-11-30 19:00:00 7.9 13 Oeste 23 Oeste 0.2 -- -- 94
2019-11-30 18:00:00 7.9 11 Oeste 31 Oeste 0.6 -- -- 93
2019-11-30 17:00:00 8.4 17 Oeste 41 Oeste 0 -- -- 88
2019-11-30 16:00:00 9.6 19 Oeste 38 Oeste 0.6 -- -- 94
2019-11-30 15:00:00 10.2 16 Oeste 45 Oeste 2.4 -- -- 94
2019-11-30 14:00:00 11.8 23 Oeste 41 Oeste 0.8 -- -- 94
2019-11-30 13:00:00 11.4 18 Sudoeste 37 Sur 0.6 -- -- 93
2019-11-30 12:00:00 11.8 26 Sur 42 Sur 0 -- -- 89
2019-11-30 11:00:00 12.3 28 Sur 44 Sudoeste 0 -- -- 87
2019-11-30 10:00:00 12 23 Sur 39 Sur 0 -- -- 88
2019-11-30 09:00:00 11.5 25 Sur 33 Sudoeste 0 -- -- 90
2019-11-30 08:00:00 11.6 14 Sur 28 Sur 0 -- -- 90
2019-11-30 07:00:00 11.6 19 Sur 28 Sur 0 -- -- 91
2019-11-30 06:00:00 11.6 12 Sudoeste 28 Sudoeste 0 -- -- 91
2019-11-30 05:00:00 11.4 13 Sur 22 Sudoeste 0 -- -- 91
2019-11-30 04:00:00 11.7 12 Sudoeste 23 Sudoeste 0 -- -- 89
2019-11-30 03:00:00 11.8 14 Sudoeste 28 Sudoeste 0 -- -- 91
2019-11-30 02:00:00 11.9 12 Sudoeste 20 Sudoeste 0 -- -- 92
2019-11-30 01:00:00 12 10 Sudoeste 21 Sudoeste 0 -- -- 93
2019-11-30 00:00:00 12 9 Sudoeste 17 Sudoeste 0 -- -- 92
2019-11-29 23:00:00 12 8 Sudoeste 24 Sudoeste 0 -- -- 93
2019-11-29 22:00:00 12.1 14 Sudoeste 26 Sudoeste 0 -- -- 94
2019-11-29 21:00:00 11.9 11 Sudoeste 17 Sudoeste 0 -- -- 95
2019-11-29 20:00:00 11.7 6 Sur 12 Sur 0 -- -- 94
2019-11-29 19:00:00 12.1 8 Sur 13 Sur 0 -- -- 91
2019-11-29 18:00:00 12.8 5 Sudoeste 15 Sudoeste 0 -- -- 88
2019-11-29 17:00:00 13.5 13 Sudoeste 20 Sudoeste 0 -- -- 86
2019-11-29 16:00:00 13.3 11 Sudoeste 21 Sudoeste 0 -- -- 90
2019-11-29 15:00:00 13.6 13 Sudoeste 22 Sudoeste 0 -- -- 91
2019-11-29 14:00:00 13 10 Oeste 21 Sudoeste 0.8 -- -- 95
2019-11-29 13:00:00 12.4 15 Sudoeste 24 Sudoeste 0.8 -- -- 94
2019-11-29 12:00:00 12.5 12 Sudoeste 24 Sudoeste 0 -- -- 96
2019-11-29 11:00:00 11.9 10 Sudoeste 24 Sudoeste 0.2 -- -- 97
2019-11-29 10:00:00 11.7 10 Sudoeste 20 Sudoeste 0.2 -- -- 97
2019-11-29 09:00:00 11.2 8 Sudoeste 17 Sudoeste 0 -- -- 96
2019-11-29 08:00:00 11.3 10 Sudoeste 27 Sudoeste 0.2 -- -- 95
2019-11-29 07:00:00 11.7 16 Sudoeste 28 Sudoeste 0.4 -- -- 94
2019-11-29 06:00:00 11.5 13 Sudoeste 22 Sudoeste 0 -- -- 95
2019-11-29 05:00:00 11.4 14 Sudoeste 26 Oeste 0 -- -- 95
2019-11-29 04:00:00 11.3 16 Sudoeste 31 Sudoeste 0 -- -- 95
2019-11-29 03:00:00 11.6 15 Sudoeste 29 Sudoeste 0 -- -- 91
2019-11-29 02:00:00 11.7 14 Sudoeste 28 Sudoeste 0 -- -- 89
2019-11-29 01:00:00 11.9 17 Sudoeste 36 Sudoeste 0 -- -- 85
2019-11-29 00:00:00 12 21 Sudoeste 43 Sudoeste 0 -- -- 83
2019-11-28 23:00:00 12.2 24 Sudoeste 43 Sudoeste 0 -- -- 81
2019-11-28 22:00:00 12.1 24 Sudoeste 47 Sudoeste 0 -- -- 80
2019-11-28 21:00:00 12.2 27 Sudoeste 46 Sudoeste 0 -- -- 76
2019-11-28 20:00:00 11.6 23 Sudoeste 40 Sudoeste 0 -- -- 79
2019-11-28 19:00:00 11.8 22 Sudoeste 43 Sur 0 -- -- 77
2019-11-28 18:00:00 11.9 22 Sudoeste 39 Sudoeste 0 -- -- 75
2019-11-28 17:00:00 12.2 22 Sudoeste 44 Sudoeste 0 -- -- 73
2019-11-28 16:00:00 12.4 22 Sudoeste 42 Oeste 0 -- -- 74
2019-11-28 15:00:00 12.7 29 Sudoeste 56 Sudoeste 0 -- -- 76
2019-11-28 14:00:00 12.7 28 Sudoeste 51 Sudoeste 0 -- -- 73
2019-11-28 13:00:00 12.8 23 Sudoeste 49 Sudoeste 0 -- -- 71
2019-11-28 12:00:00 11.7 22 Sudoeste 35 Sudoeste 0 -- -- 78
2019-11-28 11:00:00 9.7 15 Sudoeste 27 Sur 0 -- -- 90
2019-11-28 10:00:00 9.6 18 Sur 27 Sur 0 -- -- 89
2019-11-28 09:00:00 9 15 Sudoeste 33 Sudoeste 0 -- -- 92
2019-11-28 08:00:00 8.7 9 Sur 21 Sudoeste 0 -- -- 90
2019-11-28 07:00:00 8.8 8 Sudoeste 23 Sur 0 -- -- 90
2019-11-28 06:00:00 8.3 16 Sudoeste 26 Sudoeste 0 -- -- 90
2019-11-28 05:00:00 8.5 14 Sudoeste 28 Sudoeste 0 -- -- 88
2019-11-28 04:00:00 8.9 14 Sudoeste 28 Sudoeste 0 -- -- 88
2019-11-28 03:00:00 8.7 20 Sudoeste 39 Sudoeste 0 -- -- 90
2019-11-28 02:00:00 9.4 23 Sudoeste 38 Sudoeste 0 -- -- 84
2019-11-28 01:00:00 8.9 20 Sudoeste 38 Sudoeste 0 -- -- 85
2019-11-28 00:00:00 8.7 19 Sudoeste 31 Sudoeste 0 -- -- 85
2019-11-27 23:00:00 8.7 13 Sudoeste 24 Sudoeste 0 -- -- 87
2019-11-27 22:00:00 8.8 19 Sudoeste 36 Sudoeste 0 -- -- 88
2019-11-27 21:00:00 9.3 16 Sudoeste 29 Sudoeste 0 -- -- 88
2019-11-27 20:00:00 9.7 20 Sudoeste 33 Sudoeste 0 -- -- 84
2019-11-27 19:00:00 9.4 17 Sudoeste 31 Sudoeste 0 -- -- 85
2019-11-27 18:00:00 9.9 22 Sudoeste 44 Sudoeste 0 -- -- 78
2019-11-27 17:00:00 10.7 22 Sudoeste 45 Oeste 0 -- -- 75
2019-11-27 16:00:00 11 25 Sudoeste 49 Oeste 0 -- -- 73
2019-11-27 15:00:00 11.3 26 Sudoeste 49 Oeste 0 -- -- 72
2019-11-27 14:00:00 11.6 28 Sudoeste 50 Sudoeste 0 -- -- 74
2019-11-27 06:00:00 -- -- -- -- -- -- -- -- --
2019-11-27 05:00:00 7.4 15 Sudoeste 35 Oeste 0 -- -- 88
2019-11-27 04:00:00 7.5 19 Sudoeste 36 Oeste 0 -- -- 86
2019-11-27 03:00:00 7.7 19 Sudoeste 41 Sudoeste 0 -- -- 87
2019-11-27 02:00:00 8.3 24 Sudoeste 46 Oeste 0.2 -- -- 90
2019-11-27 01:00:00 9.1 24 Sudoeste 44 Sudoeste 0 -- -- 92
2019-11-27 00:00:00 9.5 19 Sudoeste 44 Oeste 0 -- -- 93
2019-11-26 23:00:00 10 20 Oeste 45 Sudoeste 0.6 -- -- 93
2019-11-26 22:00:00 10.7 24 Sudoeste 65 Oeste 1.2 -- -- 91
2019-11-26 21:00:00 12.7 30 Sudoeste 67 Sudoeste 0 -- -- 70
2019-11-26 20:00:00 12.6 31 Sudoeste 62 Sudoeste 0 -- -- 69
2019-11-26 19:00:00 12.8 28 Sudoeste 51 Sudoeste 0 -- -- 78
2019-11-26 18:00:00 13.5 32 Sudoeste 56 Sudoeste 0 -- -- 85
2019-11-26 17:00:00 13.7 23 Sudoeste 57 Sudoeste 0 -- -- 85
2019-11-26 16:00:00 14.5 36 Sudoeste 54 Sur 0 -- -- 79
2019-11-26 15:00:00 14.1 32 Sudoeste 50 Sur 0 -- -- 82
2019-11-26 14:00:00 14.7 32 Sudoeste 51 Sudoeste 0 -- -- 79
2019-11-26 13:00:00 14.2 33 Sur 69 Sur 0 -- -- 81
2019-11-26 12:00:00 14 35 Sudoeste 52 Sudoeste 0.2 -- -- 82
2019-11-26 11:00:00 13.3 27 Sur 42 Sur 0 -- -- 86
2019-11-26 10:00:00 11.9 23 Sudoeste 33 Sur 0 -- -- 91
2019-11-26 09:00:00 11.2 17 Sudoeste 39 Sudoeste 0.8 -- -- 92
2019-11-26 08:00:00 10.5 20 Sudoeste 37 Sur 0 -- -- 91
2019-11-26 07:00:00 10.7 24 Sur 34 Sudoeste 0 -- -- 91
2019-11-26 06:00:00 10.4 22 Sur 40 Sur 0 -- -- 93
2019-11-26 05:00:00 10.6 23 Sur 30 Sur 0 -- -- 91
2019-11-26 04:00:00 10.6 18 Sur 25 Sur 0 -- -- 89
2019-11-26 03:00:00 10 10 Sur 18 Sur 0 -- -- 92
2019-11-26 02:00:00 8.9 6 Sur 15 Sur 0 -- -- 93
2019-11-26 01:00:00 8.8 6 Sur 15 Sur 0 -- -- 93
2019-11-26 00:00:00 8.7 11 Sur 14 Sur 0 -- -- 91
2019-11-25 23:00:00 9.1 6 Sudoeste 13 Sudoeste 0 -- -- 90
2019-11-25 22:00:00 10.2 10 Sudoeste 17 Sudoeste 0 -- -- 88
2019-11-25 21:00:00 10.2 9 Sur 17 Sur 0 -- -- 90
2019-11-25 20:00:00 10 11 Sudoeste 20 Sudoeste 0 -- -- 90
2019-11-25 19:00:00 10.1 10 Sudoeste 15 Sudoeste 0 -- -- 90
2019-11-25 18:00:00 10.9 9 Sudoeste 23 Oeste 0 -- -- 85
2019-11-25 17:00:00 11.8 16 Oeste 30 Oeste 0 -- -- 82
2019-11-25 16:00:00 12.5 21 Oeste 36 Oeste 0 -- -- 79
2019-11-25 15:00:00 13 20 Oeste 37 Oeste 0 -- -- 78
2019-11-25 14:00:00 13.3 23 Oeste 41 Oeste 0 -- -- 76
2019-11-25 13:00:00 12.9 23 Sudoeste 36 Oeste 0 -- -- 82
2019-11-25 12:00:00 12.1 22 Sudoeste 37 Sudoeste 0 -- -- 84
2019-11-25 11:00:00 11.6 21 Sudoeste 36 Sudoeste 0 -- -- 86
2019-11-25 10:00:00 10.8 17 Sudoeste 32 Sudoeste 0 -- -- 88
2019-11-25 09:00:00 8.9 11 Sudoeste 19 Oeste 0 -- -- 93
2019-11-25 08:00:00 9.1 11 Sudoeste 28 Sudoeste 0 -- -- 92
2019-11-25 07:00:00 9.8 11 Sudoeste 21 Sudoeste 0.2 -- -- 93
2019-11-25 06:00:00 10.1 10 Sudoeste 28 Sudoeste 0 -- -- 94
2019-11-25 05:00:00 10.2 15 Sudoeste 36 Sudoeste 0 -- -- 94
2019-11-25 04:00:00 10.5 22 Sudoeste 33 Sudoeste 0.6 -- -- 96
2019-11-25 03:00:00 10.4 15 Oeste 51 Sudoeste 0.4 -- -- 95
2019-11-25 02:00:00 11 26 Sudoeste 43 Sudoeste 0.4 -- -- 93
2019-11-25 01:00:00 9.4 18 Sudoeste 31 Sudoeste 0 -- -- 94
2019-11-25 00:00:00 9.2 23 Sudoeste 35 Sur 0 -- -- 91
2019-11-24 23:00:00 8.9 20 Sudoeste 41 Sur 0 -- -- 91
2019-11-24 22:00:00 8.6 19 Sur 34 Sur 0 -- -- 92
2019-11-24 21:00:00 8.2 23 Sudoeste 35 Sudoeste 0 -- -- 91
2019-11-24 20:00:00 7.9 17 Sur 26 Sur 0 -- -- 88
2019-11-24 19:00:00 8.7 13 Sudoeste 21 Sur 0 -- -- 83
2019-11-24 18:00:00 9.5 12 Sudoeste 24 Sudoeste 0 -- -- 78
2019-11-24 17:00:00 9.9 13 Sudoeste 29 Sudoeste 0 -- -- 76
2019-11-24 16:00:00 10.2 19 Sudoeste 32 Oeste 0 -- -- 74
2019-11-24 15:00:00 9.3 19 Oeste 29 Oeste 0 -- -- 74
2019-11-24 14:00:00 8.8 19 Sudoeste 29 Sudoeste 0 -- -- 77
2019-11-24 13:00:00 8.7 15 Sudoeste 28 Sudoeste 0 -- -- 78
2019-11-24 12:00:00 7.7 15 Sudoeste 24 Sudoeste 0 -- -- 79
2019-11-24 11:00:00 6.7 13 Sudoeste 25 Sudoeste 0 -- -- 83
2019-11-24 10:00:00 5.3 10 Sudoeste 18 Sudoeste 0 -- -- 93
2019-11-24 09:00:00 3.2 9 Sudoeste 16 Sudoeste 0 -- -- 96
2019-11-24 08:00:00 3.3 8 Sudoeste 22 Sudoeste 0 -- -- 95
2019-11-24 07:00:00 3.8 13 Sudoeste 26 Oeste 0 -- -- 96
2019-11-24 06:00:00 3.9 15 Sudoeste 26 Oeste 0 -- -- 97
2019-11-24 05:00:00 3.7 14 Oeste 23 Sudoeste 0 -- -- 96
2019-11-24 04:00:00 3.7 11 Sudoeste 26 Sudoeste 0 -- -- 94
2019-11-24 03:00:00 4.2 13 Sudoeste 25 Oeste 0 -- -- 95
2019-11-24 02:00:00 4.1 12 Sudoeste 23 Oeste 0 -- -- 94
2019-11-24 01:00:00 4.3 14 Sudoeste 24 Sudoeste 0 -- -- 93
2019-11-24 00:00:00 4.5 10 Sudoeste 21 Sudoeste 0 -- -- 93
2019-11-23 23:00:00 4.4 10 Sudoeste 19 Sudoeste 0 -- -- 91
2019-11-23 22:00:00 4.7 10 Sudoeste 18 Sudoeste 0 -- -- 87
2019-11-23 21:00:00 5.5 13 Sudoeste 21 Oeste 0 -- -- 84
2019-11-23 20:00:00 6.2 15 Oeste 24 Oeste 0 -- -- 80
2019-11-23 19:00:00 6.4 11 Sudoeste 19 Oeste 0 -- -- 80
2019-11-23 18:00:00 7.8 12 Oeste 30 Oeste 0 -- -- 71
2019-11-23 17:00:00 8.9 20 Oeste 38 Oeste 0 -- -- 67
2019-11-23 16:00:00 9.1 21 Oeste 37 Noroeste 0 -- -- 64
2019-11-23 15:00:00 9.1 18 Noroeste 39 Oeste 0 -- -- 65
2019-11-23 14:00:00 8.9 22 Oeste 47 Oeste 0 -- -- 68
2019-11-23 13:00:00 8 20 Oeste 46 Oeste 0 -- -- 74
2019-11-23 12:00:00 7.9 21 Oeste 45 Oeste 0 -- -- 77
2019-11-23 11:00:00 6.8 26 Oeste 41 Oeste 0 -- -- 81
2019-11-23 10:00:00 6.1 21 Oeste 32 Oeste 0 -- -- 85
2019-11-23 09:00:00 4.1 15 Sudoeste 38 Oeste 0 -- -- 92
2019-11-23 08:00:00 4.2 23 Oeste 44 Oeste 0 -- -- 89
2019-11-23 07:00:00 4 19 Oeste 35 Oeste 0 -- -- 87
2019-11-23 06:00:00 4.4 24 Oeste 45 Sudoeste 0 -- -- 87
2019-11-23 05:00:00 4.7 24 Oeste 43 Oeste 0 -- -- 87
2019-11-23 04:00:00 5.2 23 Oeste 53 Oeste 0 -- -- 87
2019-11-23 03:00:00 5.3 33 Oeste 57 Oeste 0 -- -- 89
2019-11-23 02:00:00 5.5 28 Oeste 50 Oeste 0 -- -- 89
2019-11-23 01:00:00 5.9 29 Oeste 56 Oeste 0 -- -- 89
2019-11-23 00:00:00 6.1 28 Oeste 55 Sudoeste 0.2 -- -- 88
2019-11-22 23:00:00 7.1 37 Oeste 60 Oeste 0 -- -- 85
2019-11-22 22:00:00 7.6 26 Sudoeste 66 Sudoeste 0.6 -- -- 91
2019-11-22 21:00:00 8.1 29 Sudoeste 50 Sudoeste 0 -- -- 87
2019-11-22 20:00:00 8.3 27 Sudoeste 49 Sudoeste 0 -- -- 84
2019-11-22 19:00:00 8.3 27 Sudoeste 50 Oeste 0 -- -- 88
2019-11-22 18:00:00 8.5 32 Oeste 51 Sudoeste 0.4 -- -- 85
2019-11-22 17:00:00 9.5 24 Oeste 59 Oeste 0 -- -- 83
2019-11-22 16:00:00 10.8 35 Oeste 62 Oeste 0.2 -- -- 81
2019-11-22 15:00:00 11.2 27 Oeste 49 Sudoeste 2.8 -- -- 91
2019-11-22 14:00:00 13.1 30 Sudoeste 55 Sudoeste 0 -- -- 75
2019-11-22 13:00:00 11.7 34 Sudoeste 71 Sur 0.2 -- -- 86
2019-11-22 12:00:00 10.3 38 Sur 65 Sudoeste 1.4 -- -- 90
2019-11-22 11:00:00 10.7 45 Sur 72 Sudoeste 0 -- -- 83
2019-11-22 10:00:00 10 45 Sur 73 Sur 0 -- -- 85
2019-11-22 09:00:00 8.9 33 Sur 55 Sur 0 -- -- 88
2019-11-22 08:00:00 8 30 Sur 44 Sur 0.2 -- -- 91
2019-11-22 07:00:00 7.5 27 Sur 56 Sur 1.2 -- -- 91
2019-11-22 06:00:00 7.4 21 Sur 34 Sur 1 -- -- 91
2019-11-22 05:00:00 7.8 22 Sudoeste 39 Sur 0 -- -- 87
2019-11-22 04:00:00 8.1 27 Sur 37 Sur 0 -- -- 86
2019-11-22 03:00:00 7.4 11 Sudoeste 18 Sur 0 -- -- 90
2019-11-22 02:00:00 7.2 10 Sur 18 Sur 0 -- -- 90
2019-11-22 01:00:00 7.1 12 Sudoeste 22 Sur 0 -- -- 91
2019-11-22 00:00:00 7 11 Sur 17 Sur 0 -- -- 94
2019-11-21 23:00:00 6.9 6 Sur 10 Sur 0.2 -- -- 95
2019-11-21 22:00:00 6.4 5 Sur 9 Sudoeste 0 -- -- 94
2019-11-21 21:00:00 6.6 0 Calma 9 Sur 0.2 -- -- 92
2019-11-21 20:00:00 7 8 Sudoeste 15 Sur 0.2 -- -- 88
2019-11-21 19:00:00 6.9 10 Sur 14 Sudoeste 0 -- -- 86
2019-11-21 18:00:00 7.7 7 Sudoeste 21 Sudoeste 0 -- -- 80
2019-11-21 17:00:00 9.5 17 Sudoeste 29 Sudoeste 0 -- -- 69
2019-11-21 16:00:00 10.1 17 Sudoeste 26 Sudoeste 0 -- -- 72
2019-11-21 15:00:00 9.2 15 Oeste 29 Sudoeste 0 -- -- 76
2019-11-21 14:00:00 8.9 15 Oeste 39 Oeste 0.2 -- -- 80
2019-11-21 13:00:00 8.7 13 Sudoeste 24 Sudoeste 0 -- -- 87
2019-11-21 12:00:00 7.4 12 Oeste 27 Sudoeste 0 -- -- 88
2019-11-21 11:00:00 7.7 13 Oeste 25 Sudoeste 0 -- -- 92
2019-11-21 10:00:00 6.6 11 Sudoeste 17 Sudoeste 0.2 -- -- 96
2019-11-21 09:00:00 6.3 11 Sudoeste 23 Sudoeste 0 -- -- 94
2019-11-21 08:00:00 5.6 10 Sudoeste 17 Sudoeste 0 -- -- 94
2019-11-21 07:00:00 5.5 11 Sudoeste 17 Sur 0 -- -- 94
2019-11-21 06:00:00 5.3 7 Sur 17 Sur 0.4 -- -- 94
2019-11-21 05:00:00 5.4 12 Sur 24 Sudoeste 0 -- -- 91
2019-11-21 04:00:00 5.1 14 Sur 23 Sur 0 -- -- 90
2019-11-21 03:00:00 4.1 9 Sur 14 Sur 0 -- -- 92
2019-11-21 02:00:00 5.3 7 Sudoeste 18 Sudoeste 0 -- -- 91
2019-11-21 01:00:00 5.1 13 Sudoeste 29 Sudoeste 0 -- -- 91
2019-11-21 00:00:00 4.4 16 Sur 22 Sur 0 -- -- 93
2019-11-20 23:00:00 4.4 14 Sur 19 Sur 0 -- -- 92
2019-11-20 22:00:00 4.6 15 Sur 23 Sur 0 -- -- 92
2019-11-20 21:00:00 4.8 14 Sur 19 Sur 0 -- -- 92
2019-11-20 20:00:00 5.3 11 Sur 22 Sur 0 -- -- 91
2019-11-20 19:00:00 5 10 Sudoeste 21 Sudoeste 0 -- -- 91
2019-11-20 18:00:00 5.9 10 Sudoeste 23 Sur 0 -- -- 88
2019-11-20 17:00:00 6.7 15 Sudoeste 25 Sur 0 -- -- 86
2019-11-20 16:00:00 7.3 14 Sudoeste 30 Sudoeste 0 -- -- 84
2019-11-20 15:00:00 6.7 19 Sudoeste 35 Sur 0 -- -- 86
2019-11-20 14:00:00 6.2 22 Sudoeste 36 Sur 0 -- -- 87
2019-11-20 13:00:00 6.2 19 Sudoeste 33 Sudoeste 0.2 -- -- 88
2019-11-20 12:00:00 5.5 18 Sur 32 Sur 0.6 -- -- 91
2019-11-20 11:00:00 5 19 Sur 31 Sur 1.2 -- -- 91
2019-11-20 10:00:00 4.8 9 Sudoeste 19 Sudoeste 1.4 -- -- 93
2019-11-20 09:00:00 4.6 13 Sudoeste 23 Sudoeste 1.2 -- -- 92
2019-11-20 08:00:00 4.7 14 Sudoeste 29 Sur 0.2 -- -- 89
2019-11-20 07:00:00 5.3 20 Sur 31 Sur 0 -- -- 79
2019-11-20 06:00:00 5.1 12 Sur 21 Sur 0 -- -- 80
2019-11-20 05:00:00 5.1 12 Sur 20 Sur 0 -- -- 85
2019-11-20 04:00:00 5.4 8 Sur 13 Sur 0.8 -- -- 88
2019-11-20 03:00:00 5.4 5 Sur 11 Sudoeste 0.6 -- -- 90
2019-11-20 02:00:00 5.7 6 Sur 13 Sur 0 -- -- 82
2019-11-20 01:00:00 6.1 9 Sur 15 Sur 0 -- -- 76
2019-11-20 00:00:00 5.8 8 Sur 13 Sur 0 -- -- 77
2019-11-19 23:00:00 5.9 7 Sur 11 Sur 0 -- -- 78
2019-11-19 22:00:00 6 8 Sur 12 Sur 0 -- -- 77
2019-11-19 21:00:00 6.1 5 Sur 12 Sudoeste 0 -- -- 78
2019-11-19 20:00:00 6.4 9 Sudoeste 14 Sur 0 -- -- 75
2019-11-19 19:00:00 6.9 5 Sur 13 Sudoeste 0 -- -- 73
2019-11-19 18:00:00 7.5 6 Sur 13 Sudoeste 0 -- -- 72
2019-11-19 17:00:00 8.8 3 Sur 11 Sudoeste 0 -- -- 63
2019-11-19 16:00:00 9.1 8 Sudoeste 16 Oeste 0 -- -- 58
2019-11-19 15:00:00 9.2 6 Sudoeste 15 Oeste 0 -- -- 57
2019-11-19 14:00:00 8.8 8 Sudoeste 19 Oeste 0 -- -- 60
2019-11-19 13:00:00 8.4 13 Oeste 21 Oeste 0 -- -- 63
2019-11-19 12:00:00 7.3 6 Sur 10 Sur 0 -- -- 72
2019-11-19 11:00:00 3.2 0 Calma 3 Sudeste 0 -- -- 98
2019-11-19 10:00:00 0.2 0 Calma 2 Sur 0 -- -- 97
2019-11-19 09:00:00 -1.1 0 Calma 5 Sur 0 -- -- 97
2019-11-19 08:00:00 -1.9 4 Sur 5 Sur 0 -- -- 96
2019-11-19 07:00:00 -2 3 Sur 5 Sur 0 -- -- 95
2019-11-19 06:00:00 -1.9 3 Sur 4 Sur 0 -- -- 95
2019-11-19 05:00:00 -1.7 3 Sur 7 Sur 0 -- -- 94
2019-11-19 04:00:00 -1.3 4 Sudeste 6 Sudeste 0 -- -- 93
2019-11-19 03:00:00 -0.6 2 Sur 3 Sur 0 -- -- 92
2019-11-19 02:00:00 0.5 3 Sur 4 Sur 0 -- -- 92
2019-11-19 01:00:00 1.5 4 Sur 6 Sur 0 -- -- 93
2019-11-19 00:00:00 1.7 3 Sur 8 Sur 0 -- -- 92
2019-11-18 23:00:00 1.5 5 Sur 8 Sur 0 -- -- 92
2019-11-18 22:00:00 2.3 5 Sur 10 Noroeste 0 -- -- 90
2019-11-18 21:00:00 3.3 4 Sur 6 Sur 0 -- -- 90
2019-11-18 20:00:00 3.4 3 Sur 8 Sudoeste 0 -- -- 88
2019-11-18 19:00:00 4.8 5 Sur 8 Sur 0 -- -- 82
2019-11-18 18:00:00 8.2 3 Sudeste 7 Este 0 -- -- 69
2019-11-18 17:00:00 8.5 4 Este 8 Este 0 -- -- 66
2019-11-18 16:00:00 8.9 3 Oeste 11 Oeste 0 -- -- 64
2019-11-18 15:00:00 8.5 5 Norte 16 Nordeste 0 -- -- 71
2019-11-18 14:00:00 7.9 6 Nordeste 14 Este 0 -- -- 71
2019-11-18 13:00:00 7.4 5 Norte 13 Norte 0 -- -- 72
2019-11-18 12:00:00 6.3 6 Norte 13 Nordeste 0 -- -- 77
2019-11-18 11:00:00 4.7 0 Calma 5 Noroeste 0 -- -- 96
2019-11-18 10:00:00 2.1 2 Sudeste 5 Este 0 -- -- 98
2019-11-18 09:00:00 1.4 3 Sudoeste 6 Noroeste 0 -- -- 97
2019-11-18 08:00:00 2.3 0 Calma 14 Noroeste 0 -- -- 97
2019-11-18 07:00:00 2.5 5 Oeste 10 Oeste 0 -- -- 98
2019-11-18 06:00:00 1.9 4 Oeste 7 Oeste 0 -- -- 98
2019-11-18 05:00:00 1 3 Sur 9 Sudoeste 0 -- -- 97
2019-11-18 04:00:00 0.8 6 Sudoeste 13 Sur 0 -- -- 96
2019-11-18 03:00:00 1.1 2 Oeste 5 Sudoeste 0 -- -- 94
2019-11-18 02:00:00 1.9 4 Sudoeste 9 Sudoeste 0 -- -- 95
2019-11-18 01:00:00 2.4 7 Sur 10 Sur 0 -- -- 96
2019-11-18 00:00:00 2.3 8 Sur 12 Sudoeste 0 -- -- 93
2019-11-17 23:00:00 3.3 9 Sudoeste 23 Oeste 0.2 -- -- 91
2019-11-17 22:00:00 4.2 14 Noroeste 22 Oeste 0 -- -- 88
2019-11-17 21:00:00 4.1 11 Sudoeste 21 Sudoeste 0 -- -- 91
2019-11-17 20:00:00 5.4 10 Oeste 24 Noroeste 0 -- -- 90
2019-11-17 19:00:00 6.6 14 Oeste 32 Oeste 0 -- -- 90
2019-11-17 18:00:00 7.5 16 Noroeste 38 Oeste 1.8 -- -- 94
2019-11-17 17:00:00 8.9 19 Oeste 34 Oeste 0.6 -- -- 94
2019-11-17 16:00:00 9.2 14 Oeste 27 Oeste 0.4 -- -- 95
2019-11-17 15:00:00 9.1 16 Oeste 35 Sudoeste 0.2 -- -- 94
2019-11-17 14:00:00 9.2 23 Sudoeste 42 Oeste 0 -- -- 92
2019-11-17 13:00:00 9.1 23 Oeste 40 Oeste 0 -- -- 91
2019-11-17 12:00:00 8.2 21 Sudoeste 39 Sudoeste 0 -- -- 95
2019-11-17 11:00:00 7.4 19 Sudoeste 30 Sudoeste 0.4 -- -- 97
2019-11-17 10:00:00 6.5 17 Sudoeste 27 Oeste 0 -- -- 96
2019-11-17 09:00:00 5.2 12 Sudoeste 21 Sudoeste 0 -- -- 96
2019-11-17 08:00:00 4.3 15 Sudoeste 22 Sudoeste 0 -- -- 92
2019-11-17 07:00:00 4.2 12 Sudoeste 21 Sudoeste 0 -- -- 90
2019-11-17 06:00:00 4 12 Sur 20 Sudoeste 0 -- -- 91
2019-11-17 05:00:00 4 12 Sudoeste 20 Sudoeste 0 -- -- 90
2019-11-17 04:00:00 4.1 9 Sudoeste 19 Sudoeste 0 -- -- 87
2019-11-17 03:00:00 4.1 12 Sudoeste 21 Sudoeste 0 -- -- 86
2019-11-17 02:00:00 3.8 12 Sudoeste 23 Oeste 0 -- -- 86
2019-11-17 01:00:00 3 10 Sudoeste 18 Sudoeste 0 -- -- 88
2019-11-17 00:00:00 2.4 5 Sudoeste 13 Sudoeste 0 -- -- 86
2019-11-16 23:00:00 2.5 6 Sudoeste 13 Sudoeste 0 -- -- 84
2019-11-16 22:00:00 2.5 9 Sudoeste 15 Sudoeste 0 -- -- 83
2019-11-16 21:00:00 3.5 10 Sudoeste 18 Sudoeste 0 -- -- 80
2019-11-16 20:00:00 3.6 5 Sudoeste 14 Sudoeste 0 -- -- 83
2019-11-16 19:00:00 3.4 6 Sudoeste 11 Sudoeste 0 -- -- 79
2019-11-16 18:00:00 4.8 6 Oeste 29 Oeste 0 -- -- 71
2019-11-16 17:00:00 6.2 13 Oeste 26 Oeste 0 -- -- 69
2019-11-16 16:00:00 6.5 18 Oeste 31 Oeste 0 -- -- 70
2019-11-16 15:00:00 6.2 18 Oeste 28 Sudoeste 0 -- -- 80
2019-11-16 14:00:00 5.3 18 Sudoeste 30 Oeste 0 -- -- 80
2019-11-16 13:00:00 4.6 16 Oeste 29 Oeste 0 -- -- 82
2019-11-16 12:00:00 3.3 15 Sudoeste 23 Sudoeste 0 -- -- 89
2019-11-16 11:00:00 1.1 11 Sudoeste 19 Oeste 0 -- -- 98
2019-11-16 10:00:00 -0.1 10 Sudoeste 20 Oeste 0 -- -- 98
2019-11-16 09:00:00 -1.1 8 Sudoeste 12 Oeste 0 -- -- 97
2019-11-16 08:00:00 -2.4 5 Sur 8 Sudoeste 0 -- -- 95
2019-11-16 07:00:00 -2.2 4 Sudoeste 9 Sudoeste 0 -- -- 94
2019-11-16 06:00:00 -1.7 5 Sudoeste 9 Sudoeste 0 -- -- 95
2019-11-16 05:00:00 -1 4 Sudoeste 8 Sudoeste 0 -- -- 95
2019-11-16 04:00:00 -1 4 Sudoeste 9 Sudoeste 0 -- -- 94
2019-11-16 03:00:00 -0.6 4 Sudoeste 8 Sur 0 -- -- 93
2019-11-16 02:00:00 -0.1 4 Sur 7 Oeste 0 -- -- 92
2019-11-16 01:00:00 0.7 0 Calma 8 Sudoeste 0 -- -- 90
2019-11-16 00:00:00 1.5 6 Sudoeste 11 Oeste 0 -- -- 89